TAF KLOZ
KLOZ 280538Z 2806/2906 23006KT P6SM FEW200 WS020/27035KT FM280700 25006KT P6SM FEW250 FM281700 28007KT P6SM SCT250 FM290100 VRB04KT P6SM FEW250=
METAR KLOZ
WC KLOZ
WS KLOZ
WV KLOZ